createdAt,value
2022-07-28T00:00:56.320Z,100.00
2022-07-28T00:03:23.122Z,100.00
2022-07-28T00:05:49.953Z,99.58
2022-07-28T00:08:17.188Z,100.00
2022-07-28T00:10:43.874Z,100.00
2022-07-28T00:13:10.635Z,100.00
2022-07-28T00:15:37.604Z,100.00
2022-07-28T00:18:04.305Z,95.70
2022-07-28T00:20:30.983Z,98.51
2022-07-28T00:22:57.682Z,100.00
2022-07-28T00:25:24.605Z,100.00
2022-07-28T00:27:51.370Z,100.00
2022-07-28T00:30:17.981Z,100.00
2022-07-28T00:32:44.891Z,100.00
2022-07-28T00:35:12.398Z,100.00
2022-07-28T00:37:41.678Z,100.00
2022-07-28T00:40:10.251Z,100.00
2022-07-28T00:42:37.200Z,100.00
2022-07-28T00:45:04.486Z,100.00
2022-07-28T00:47:33.670Z,100.00
2022-07-28T00:50:02.762Z,100.00
2022-07-28T00:52:30.119Z,100.00
2022-07-28T00:54:58.539Z,100.00
2022-07-28T00:57:25.277Z,100.00
2022-07-28T00:59:51.957Z,100.00
2022-07-28T01:02:19.104Z,100.00
2022-07-28T01:04:46.322Z,100.00
2022-07-28T01:07:26.797Z,100.00
2022-07-28T01:10:17.446Z,100.00
2022-07-28T01:13:04.170Z,100.00
2022-07-28T01:15:38.358Z,100.00
2022-07-28T01:18:26.755Z,100.00
2022-07-28T01:21:02.493Z,100.00
2022-07-28T01:23:32.189Z,100.00
2022-07-28T01:26:23.119Z,100.00
2022-07-28T01:29:11.631Z,100.00
2022-07-28T01:31:43.151Z,100.00
2022-07-28T01:34:15.656Z,100.00
2022-07-28T01:36:46.425Z,100.00
2022-07-28T01:39:15.229Z,100.00
2022-07-28T01:41:44.374Z,100.00
2022-07-28T01:44:16.678Z,100.00
2022-07-28T01:46:46.233Z,100.00
2022-07-28T01:49:15.461Z,100.00
2022-07-28T01:51:43.491Z,100.00
2022-07-28T01:54:12.080Z,100.00
2022-07-28T01:56:39.934Z,100.00
2022-07-28T01:59:09.795Z,100.00
2022-07-28T02:01:38.767Z,100.00
2022-07-28T02:04:08.099Z,100.00
2022-07-28T02:06:35.532Z,100.00
2022-07-28T02:09:05.329Z,100.00
2022-07-28T02:11:40.259Z,100.00
2022-07-28T02:14:10.704Z,100.00
2022-07-28T02:16:41.842Z,100.00
2022-07-28T02:19:09.383Z,100.00
2022-07-28T02:21:37.153Z,100.00
2022-07-28T02:24:06.362Z,100.00
2022-07-28T02:26:38.264Z,100.00
2022-07-28T02:29:07.865Z,100.00
2022-07-28T02:31:45.594Z,100.00
2022-07-28T02:34:14.919Z,100.00
2022-07-28T02:36:51.025Z,100.00
2022-07-28T02:39:23.880Z,100.00
2022-07-28T02:41:58.304Z,100.00
2022-07-28T02:44:29.103Z,100.00
2022-07-28T02:46:58.047Z,100.00
2022-07-28T02:49:31.141Z,100.00
2022-07-28T02:52:01.064Z,100.00
2022-07-28T02:54:30.105Z,100.00
2022-07-28T02:56:58.871Z,100.00
2022-07-28T02:59:26.733Z,100.00
2022-07-28T03:01:54.303Z,100.00
2022-07-28T03:04:41.306Z,100.00
2022-07-28T03:07:08.579Z,100.00
2022-07-28T03:09:43.303Z,100.00
2022-07-28T03:12:11.257Z,100.00
2022-07-28T03:14:39.014Z,100.00
2022-07-28T03:17:06.845Z,100.00
2022-07-28T03:19:33.743Z,100.00
2022-07-28T03:22:00.899Z,100.00
2022-07-28T03:24:31.197Z,100.00
2022-07-28T03:27:10.788Z,100.00
2022-07-28T03:29:38.906Z,100.00
2022-07-28T03:32:06.459Z,100.00
2022-07-28T03:34:33.183Z,100.00
2022-07-28T03:37:11.915Z,100.00
2022-07-28T03:39:50.831Z,100.00
2022-07-28T03:42:19.611Z,100.00
2022-07-28T03:44:47.818Z,100.00
2022-07-28T03:47:20.294Z,100.00
2022-07-28T03:49:46.946Z,98.60
2022-07-28T03:52:13.568Z,98.74
2022-07-28T03:54:40.325Z,99.32
2022-07-28T03:57:07.024Z,100.00
2022-07-28T03:59:33.651Z,100.00
2022-07-28T04:02:00.408Z,99.94
2022-07-28T04:04:27.211Z,99.90
2022-07-28T04:06:53.826Z,99.25
2022-07-28T04:09:20.411Z,99.45
2022-07-28T04:11:47.121Z,98.38
2022-07-28T04:14:16.907Z,98.48
2022-07-28T04:16:44.557Z,99.77
2022-07-28T04:19:11.674Z,100.00
2022-07-28T04:21:38.354Z,99.10
2022-07-28T04:24:05.460Z,98.56
2022-07-28T04:26:32.164Z,99.19
2022-07-28T04:28:58.771Z,98.90
2022-07-28T04:31:30.335Z,100.00
2022-07-28T04:33:57.170Z,100.00
2022-07-28T04:36:23.836Z,100.00
2022-07-28T04:38:50.441Z,100.00
2022-07-28T04:41:17.031Z,100.00
2022-07-28T04:43:45.358Z,99.72
2022-07-28T04:46:14.973Z,100.00
2022-07-28T04:48:42.239Z,99.85
2022-07-28T04:51:09.000Z,97.25
2022-07-28T04:53:35.780Z,97.46
2022-07-28T04:56:02.897Z,99.25
2022-07-28T04:58:30.939Z,98.11
2022-07-28T05:00:57.829Z,98.30
2022-07-28T05:03:24.530Z,96.96
2022-07-28T05:05:54.599Z,96.39
2022-07-28T05:08:25.729Z,95.70
2022-07-28T05:10:54.253Z,96.83
2022-07-28T05:13:20.844Z,96.62
2022-07-28T05:15:47.443Z,97.25
2022-07-28T05:18:14.272Z,97.46
2022-07-28T05:20:40.864Z,96.30
2022-07-28T05:23:08.437Z,96.73
2022-07-28T05:25:35.090Z,95.28
2022-07-28T05:28:01.744Z,93.07
2022-07-28T05:30:29.421Z,92.61
2022-07-28T05:33:00.025Z,93.17
2022-07-28T05:35:26.947Z,91.02
2022-07-28T05:37:53.545Z,90.08
2022-07-28T05:40:20.309Z,89.80
2022-07-28T05:42:49.767Z,90.21
2022-07-28T05:45:17.686Z,87.11
2022-07-28T05:47:47.223Z,88.40
2022-07-28T05:50:16.101Z,89.24
2022-07-28T05:52:43.315Z,87.43
2022-07-28T05:55:10.613Z,87.39
2022-07-28T05:57:39.402Z,87.57
2022-07-28T06:00:13.029Z,85.95
2022-07-28T06:02:40.521Z,85.18
2022-07-28T06:05:07.641Z,86.75
2022-07-28T06:07:43.640Z,87.85
2022-07-28T06:10:15.916Z,86.56
2022-07-28T06:12:50.645Z,86.99
2022-07-28T06:15:23.233Z,88.10
2022-07-28T06:17:53.905Z,87.49
2022-07-28T06:20:22.424Z,87.54
2022-07-28T06:22:54.867Z,87.18
2022-07-28T06:25:27.754Z,86.28
2022-07-28T06:27:56.515Z,83.95
2022-07-28T06:30:23.809Z,86.55
2022-07-28T06:32:50.871Z,82.81
2022-07-28T06:35:18.476Z,83.94
2022-07-28T06:37:46.143Z,82.98
2022-07-28T06:40:13.607Z,83.87
2022-07-28T06:42:44.417Z,82.88
2022-07-28T06:45:20.743Z,80.83
2022-07-28T06:47:49.505Z,81.59
2022-07-28T06:50:24.547Z,83.35
2022-07-28T06:52:52.135Z,83.93
2022-07-28T06:55:18.872Z,83.57
2022-07-28T06:57:45.759Z,82.81
2022-07-28T07:00:14.143Z,78.96
2022-07-28T07:02:41.776Z,78.30
2022-07-28T07:05:10.468Z,80.53
2022-07-28T07:07:42.522Z,77.82
2022-07-28T07:10:10.301Z,74.68
2022-07-28T07:12:36.980Z,75.06
2022-07-28T07:15:07.705Z,72.52
2022-07-28T07:17:34.570Z,70.95
2022-07-28T07:20:01.172Z,73.19
2022-07-28T07:22:27.825Z,74.39
2022-07-28T07:24:57.165Z,73.16
2022-07-28T07:27:25.162Z,71.13
2022-07-28T07:29:51.834Z,68.54
2022-07-28T07:32:18.467Z,67.08
2022-07-28T07:34:45.164Z,67.76
2022-07-28T07:37:13.745Z,68.17
2022-07-28T07:39:41.518Z,70.89
2022-07-28T07:42:08.539Z,71.20
2022-07-28T07:44:35.452Z,68.22
2022-07-28T07:47:02.220Z,64.84
2022-07-28T07:49:45.305Z,63.04
2022-07-28T07:52:13.407Z,66.22
2022-07-28T07:54:40.135Z,64.33
2022-07-28T07:57:06.786Z,64.30
2022-07-28T07:59:33.414Z,66.73
2022-07-28T08:02:00.787Z,63.23
2022-07-28T08:04:28.775Z,62.26
2022-07-28T08:06:56.329Z,58.95
2022-07-28T08:09:23.344Z,56.83
2022-07-28T08:11:50.042Z,54.75
2022-07-28T08:14:17.527Z,53.27
2022-07-28T08:16:44.757Z,53.48
2022-07-28T08:19:11.756Z,56.14
2022-07-28T08:21:38.670Z,58.93
2022-07-28T08:24:05.705Z,56.82
2022-07-28T08:26:32.438Z,57.04
2022-07-28T08:28:59.137Z,57.35
2022-07-28T08:31:26.003Z,53.80
2022-07-28T08:33:53.426Z,50.80
2022-07-28T08:36:20.814Z,51.15
2022-07-28T08:38:47.471Z,50.63
2022-07-28T08:41:22.709Z,48.08
2022-07-28T08:43:53.865Z,50.08
2022-07-28T08:46:22.981Z,50.27
2022-07-28T08:48:51.091Z,50.29
2022-07-28T08:51:19.107Z,45.84
2022-07-28T08:53:46.691Z,48.75
2022-07-28T08:56:15.958Z,45.26
2022-07-28T08:58:43.078Z,47.91
2022-07-28T09:01:11.067Z,46.79
2022-07-28T09:03:39.647Z,46.04
2022-07-28T09:06:07.330Z,45.08
2022-07-28T09:08:34.458Z,42.66
2022-07-28T09:11:01.283Z,41.32
2022-07-28T09:13:27.952Z,39.45
2022-07-28T09:15:54.819Z,42.61
2022-07-28T09:18:21.605Z,42.63
2022-07-28T09:20:48.311Z,39.94
2022-07-28T09:23:43.309Z,37.98
2022-07-28T09:26:11.262Z,38.05
2022-07-28T09:28:57.138Z,37.67
2022-07-28T09:31:26.302Z,38.53
2022-07-28T09:34:04.180Z,42.50
2022-07-28T09:36:38.799Z,40.43
2022-07-28T09:39:06.017Z,36.92
2022-07-28T09:41:58.262Z,33.85
2022-07-28T09:44:27.065Z,35.60
2022-07-28T09:46:57.476Z,37.76
2022-07-28T09:49:43.414Z,35.48
2022-07-28T09:52:11.146Z,36.90
2022-07-28T09:54:41.085Z,37.31
2022-07-28T09:57:11.625Z,35.78
2022-07-28T09:59:47.100Z,35.19
2022-07-28T10:02:27.247Z,34.84
2022-07-28T10:04:54.121Z,36.50
2022-07-28T10:07:21.560Z,37.17
2022-07-28T10:10:02.650Z,32.99
2022-07-28T10:12:31.276Z,33.54
2022-07-28T10:15:31.473Z,32.24
2022-07-28T10:17:58.292Z,34.82
2022-07-28T10:20:26.699Z,33.66
2022-07-28T10:22:58.622Z,30.50
2022-07-28T10:25:29.790Z,32.22
2022-07-28T10:28:01.233Z,32.71
2022-07-28T10:30:35.814Z,30.69
2022-07-28T10:33:05.367Z,32.04
2022-07-28T10:35:33.543Z,31.73
2022-07-28T10:38:21.444Z,32.28
2022-07-28T10:40:50.649Z,31.34
2022-07-28T10:43:17.320Z,31.17
2022-07-28T10:48:31.614Z,30.57
2022-07-28T10:50:59.433Z,31.77
2022-07-28T10:53:52.783Z,32.57
2022-07-28T10:56:45.439Z,32.95
2022-07-28T10:59:51.169Z,34.48
2022-07-28T11:02:45.750Z,32.72
2022-07-28T11:05:24.767Z,31.48
2022-07-28T11:07:51.632Z,31.83
2022-07-28T11:10:20.557Z,31.62
2022-07-28T11:12:49.728Z,31.38
2022-07-28T11:15:26.384Z,31.12
2022-07-28T11:18:08.730Z,33.45
2022-07-28T11:20:58.576Z,32.28
2022-07-28T11:23:53.484Z,34.21
2022-07-28T11:26:27.635Z,30.77
2022-07-28T11:28:57.286Z,30.28
2022-07-28T11:31:46.262Z,31.27
2022-07-28T11:34:23.979Z,33.16
2022-07-28T11:37:05.741Z,30.69
2022-07-28T11:39:43.233Z,33.76
2022-07-28T11:42:28.365Z,33.82
2022-07-28T11:44:56.491Z,35.67
2022-07-28T11:47:25.986Z,35.43
2022-07-28T11:50:15.942Z,36.88
2022-07-28T11:52:54.055Z,38.28
2022-07-28T11:55:20.994Z,39.03
2022-07-28T11:58:07.582Z,37.66
2022-07-28T12:00:34.252Z,37.47
2022-07-28T12:03:05.485Z,34.29
2022-07-28T12:05:34.245Z,34.56
2022-07-28T12:08:08.424Z,37.15
2022-07-28T12:10:54.084Z,37.64
2022-07-28T12:13:27.522Z,36.69
2022-07-28T12:15:54.267Z,35.41
2022-07-28T12:18:21.504Z,34.44
2022-07-28T12:20:53.745Z,31.00
2022-07-28T12:23:38.825Z,29.64
2022-07-28T12:26:13.042Z,34.20
2022-07-28T12:28:50.227Z,30.22
2022-07-28T12:31:17.216Z,31.42
2022-07-28T12:33:43.915Z,32.29
2022-07-28T12:36:10.815Z,29.86
2022-07-28T12:38:37.614Z,31.34
2022-07-28T12:41:13.907Z,34.72
2022-07-28T12:43:40.919Z,34.98
2022-07-28T12:46:07.712Z,34.15
2022-07-28T12:48:34.663Z,35.57
2022-07-28T12:51:01.829Z,35.17
2022-07-28T12:53:28.627Z,34.76
2022-07-28T12:56:05.994Z,35.13
2022-07-28T12:58:34.583Z,34.77
2022-07-28T13:01:02.334Z,31.82
2022-07-28T13:03:29.859Z,32.23
2022-07-28T13:06:03.693Z,31.49
2022-07-28T13:08:44.750Z,34.58
2022-07-28T13:11:41.924Z,36.26
2022-07-28T13:14:00.934Z,35.65
2022-07-28T13:16:28.593Z,35.20
2022-07-28T13:18:57.766Z,34.15
2022-07-28T13:21:57.595Z,33.18
2022-07-28T13:24:27.925Z,31.73
2022-07-28T13:26:55.321Z,33.16
2022-07-28T13:29:22.869Z,34.48
2022-07-28T13:31:50.022Z,32.56
2022-07-28T13:34:17.164Z,32.98
2022-07-28T13:36:44.058Z,36.46
2022-07-28T13:39:11.081Z,34.80
2022-07-28T13:41:57.719Z,33.48
2022-07-28T13:44:24.893Z,33.15
2022-07-28T13:46:51.629Z,32.72
2022-07-28T13:49:21.525Z,34.44
2022-07-28T13:51:49.079Z,33.52
2022-07-28T13:54:18.841Z,31.83
2022-07-28T13:56:48.593Z,31.04
2022-07-28T13:59:36.209Z,32.05
2022-07-28T14:02:04.899Z,30.95
2022-07-28T14:04:31.641Z,31.12
2022-07-28T14:06:59.277Z,33.88
2022-07-28T14:09:26.178Z,33.78
2022-07-28T14:11:53.642Z,33.15
2022-07-28T14:14:25.058Z,33.94
2022-07-28T14:16:54.638Z,31.67
2022-07-28T14:19:28.018Z,33.76
2022-07-28T14:22:12.769Z,35.28
2022-07-28T14:24:41.688Z,35.08
2022-07-28T14:27:08.366Z,34.45
2022-07-28T14:29:37.394Z,34.34
2022-07-28T14:32:04.287Z,36.29
2022-07-28T14:34:30.884Z,37.65
2022-07-28T14:36:57.544Z,38.54
2022-07-28T14:39:24.210Z,38.59
2022-07-28T14:41:50.895Z,39.33
2022-07-28T14:44:24.150Z,37.86
2022-07-28T14:46:51.150Z,37.32
2022-07-28T14:49:18.031Z,37.59
2022-07-28T14:51:45.080Z,36.76
2022-07-28T14:54:12.446Z,35.10
2022-07-28T14:56:39.307Z,36.06
2022-07-28T14:59:06.387Z,37.24
2022-07-28T15:01:36.163Z,37.67
2022-07-28T15:04:03.571Z,38.10
2022-07-28T15:06:30.285Z,36.52
2022-07-28T15:08:57.789Z,35.26
2022-07-28T15:11:24.958Z,35.27
2022-07-28T15:13:51.598Z,35.29
2022-07-28T15:16:18.428Z,35.11
2022-07-28T15:18:45.230Z,34.57
2022-07-28T15:21:16.589Z,33.70
2022-07-28T15:23:43.914Z,34.14
2022-07-28T15:26:10.744Z,35.11
2022-07-28T15:28:38.195Z,35.19
2022-07-28T15:31:05.545Z,35.05
2022-07-28T15:33:38.941Z,35.30
2022-07-28T15:36:14.611Z,35.96
2022-07-28T15:38:41.239Z,36.33
2022-07-28T15:41:08.015Z,37.31
2022-07-28T15:43:34.757Z,36.69
2022-07-28T15:46:09.266Z,36.65
2022-07-28T15:48:37.106Z,36.39
2022-07-28T15:51:04.333Z,36.25
2022-07-28T15:53:31.000Z,34.86
2022-07-28T15:55:58.130Z,35.08
2022-07-28T15:58:26.396Z,36.57
2022-07-28T16:00:54.188Z,37.57
2022-07-28T16:03:22.688Z,38.14
2022-07-28T16:05:50.047Z,37.49
2022-07-28T16:08:18.514Z,36.95
2022-07-28T16:10:51.347Z,37.21
2022-07-28T16:13:28.541Z,37.34
2022-07-28T16:16:08.007Z,37.89
2022-07-28T16:18:35.056Z,38.12
2022-07-28T16:21:01.767Z,36.95
2022-07-28T16:23:28.409Z,36.17
2022-07-28T16:25:55.186Z,36.83
2022-07-28T16:28:21.882Z,36.03
2022-07-28T16:30:48.745Z,37.23
2022-07-28T16:33:15.449Z,38.08
2022-07-28T16:35:42.092Z,37.09
2022-07-28T16:38:08.762Z,37.44
2022-07-28T16:40:36.029Z,37.14
2022-07-28T16:43:06.834Z,36.71
2022-07-28T16:45:35.340Z,36.91
2022-07-28T16:48:03.132Z,38.09
2022-07-28T16:50:31.680Z,38.39
2022-07-28T16:52:59.125Z,39.16
2022-07-28T16:55:26.493Z,39.42
2022-07-28T16:57:53.252Z,38.35
2022-07-28T17:00:21.507Z,37.89
2022-07-28T17:02:48.302Z,38.07
2022-07-28T17:05:14.963Z,38.14
2022-07-28T17:07:45.266Z,38.93
2022-07-28T17:10:14.241Z,39.27
2022-07-28T17:12:41.353Z,38.66
2022-07-28T17:15:22.154Z,39.40
2022-07-28T17:17:51.433Z,39.42
2022-07-28T17:20:19.080Z,39.61
2022-07-28T17:22:45.720Z,39.03
2022-07-28T17:27:59.246Z,39.49
2022-07-28T17:30:26.106Z,38.88
2022-07-28T17:32:58.049Z,38.89
2022-07-28T17:35:34.095Z,39.63
2022-07-28T17:38:03.402Z,39.35
2022-07-28T17:40:30.588Z,39.59
2022-07-28T17:42:57.358Z,40.36
2022-07-28T17:45:24.385Z,40.02
2022-07-28T17:47:51.381Z,39.78
2022-07-28T17:50:18.438Z,41.97
2022-07-28T17:52:46.204Z,42.01
2022-07-28T17:55:35.617Z,43.54
2022-07-28T17:58:27.868Z,46.23
2022-07-28T18:00:58.503Z,46.89
2022-07-28T18:03:58.529Z,47.66
2022-07-28T18:06:23.354Z,47.74
2022-07-28T18:08:49.974Z,49.01
2022-07-28T18:11:16.704Z,50.61
2022-07-28T18:13:45.529Z,51.39
2022-07-28T18:16:34.442Z,50.67
2022-07-28T18:19:02.620Z,51.07
2022-07-28T18:21:29.577Z,51.87
2022-07-28T18:23:56.318Z,51.78
2022-07-28T18:26:22.995Z,52.66
2022-07-28T18:28:49.812Z,52.89
2022-07-28T18:31:16.874Z,54.35
2022-07-28T18:33:44.050Z,55.47
2022-07-28T18:36:10.854Z,55.59
2022-07-28T18:38:37.651Z,55.93
2022-07-28T18:41:04.538Z,55.79
2022-07-28T18:43:31.340Z,57.33
2022-07-28T18:45:58.149Z,58.16
2022-07-28T18:48:25.630Z,57.89
2022-07-28T18:50:52.751Z,57.39
2022-07-28T18:53:19.421Z,57.95
2022-07-28T18:55:46.088Z,57.87
2022-07-28T18:58:12.726Z,57.67
2022-07-28T19:00:39.638Z,57.76
2022-07-28T19:03:06.334Z,60.14
2022-07-28T19:05:36.823Z,59.89
2022-07-28T19:08:05.289Z,59.59
2022-07-28T19:10:34.969Z,58.86
2022-07-28T19:13:01.623Z,59.18
2022-07-28T19:15:28.272Z,59.38
2022-07-28T19:18:10.116Z,59.27
2022-07-28T19:20:44.778Z,60.00
2022-07-28T19:23:11.634Z,60.36
2022-07-28T19:25:39.473Z,60.95
2022-07-28T19:28:06.640Z,62.35
2022-07-28T19:30:34.148Z,62.09
2022-07-28T19:33:00.915Z,61.44
2022-07-28T19:35:27.831Z,61.75
2022-07-28T19:37:56.624Z,61.91
2022-07-28T19:40:25.217Z,62.04
2022-07-28T19:42:52.049Z,61.59
2022-07-28T19:45:18.869Z,61.71
2022-07-28T19:47:45.870Z,61.51
2022-07-28T19:50:16.817Z,60.20
2022-07-28T19:52:43.458Z,59.46
2022-07-28T19:55:10.073Z,59.97
2022-07-28T19:57:36.714Z,59.90
2022-07-28T20:00:07.423Z,59.71
2022-07-28T20:02:39.085Z,61.61
2022-07-28T20:05:07.069Z,63.26
2022-07-28T20:07:33.851Z,61.93
2022-07-28T20:10:01.584Z,61.43
2022-07-28T20:12:31.621Z,60.97
2022-07-28T20:15:03.750Z,60.52
2022-07-28T20:17:38.390Z,61.75
2022-07-28T20:20:12.101Z,61.86
2022-07-28T20:22:39.951Z,62.60
2022-07-28T20:25:10.503Z,62.62
2022-07-28T20:27:40.334Z,61.64
2022-07-28T20:30:10.059Z,61.65
2022-07-28T20:32:37.593Z,61.43
2022-07-28T20:35:05.496Z,61.39
2022-07-28T20:37:37.150Z,61.41
2022-07-28T20:40:06.817Z,63.67
2022-07-28T20:42:33.765Z,63.59
2022-07-28T20:45:00.426Z,63.31
2022-07-28T20:47:27.883Z,64.75
2022-07-28T20:49:55.248Z,64.54
2022-07-28T20:52:21.987Z,64.67
2022-07-28T20:54:53.798Z,65.25
2022-07-28T20:57:21.883Z,65.00
2022-07-28T20:59:51.428Z,65.87
2022-07-28T21:02:19.321Z,65.08
2022-07-28T21:04:46.053Z,66.22
2022-07-28T21:07:18.069Z,67.32
2022-07-28T21:10:06.056Z,68.82
2022-07-28T21:12:33.840Z,67.92
2022-07-28T21:15:00.630Z,67.98
2022-07-28T21:17:27.298Z,68.58
2022-07-28T21:19:53.874Z,69.28
2022-07-28T21:22:23.025Z,67.88
2022-07-28T21:24:55.057Z,67.33
2022-07-28T21:27:23.025Z,68.11
2022-07-28T21:29:49.788Z,67.60
2022-07-28T21:32:16.479Z,69.25
2022-07-28T21:34:43.131Z,69.17
2022-07-28T21:37:11.612Z,69.31
2022-07-28T21:39:39.124Z,69.16
2022-07-28T21:42:08.518Z,68.68
2022-07-28T21:44:38.794Z,69.12
2022-07-28T21:47:05.541Z,71.02
2022-07-28T21:49:32.550Z,70.82
2022-07-28T21:51:59.586Z,70.88
2022-07-28T21:54:26.650Z,69.57
2022-07-28T21:56:53.413Z,69.59
2022-07-28T21:59:20.051Z,70.75
2022-07-28T22:01:46.758Z,70.71
2022-07-28T22:04:13.935Z,71.00
2022-07-28T22:06:40.870Z,71.51
2022-07-28T22:09:13.315Z,72.38
2022-07-28T22:11:39.976Z,73.27
2022-07-28T22:14:06.876Z,74.24
2022-07-28T22:16:33.547Z,73.11
2022-07-28T22:19:00.195Z,72.05
2022-07-28T22:21:26.860Z,70.20
2022-07-28T22:23:53.471Z,69.60
2022-07-28T22:26:20.106Z,68.96
2022-07-28T22:28:46.788Z,68.93
2022-07-28T22:31:13.548Z,69.66
2022-07-28T22:33:40.449Z,70.08
2022-07-28T22:36:08.876Z,70.09
2022-07-28T22:38:36.050Z,71.87
2022-07-28T22:41:02.833Z,72.25
2022-07-28T22:43:32.193Z,72.16
2022-07-28T22:45:59.065Z,71.67
2022-07-28T22:48:25.727Z,71.89
2022-07-28T22:50:52.397Z,73.79
2022-07-28T22:53:19.085Z,73.76
2022-07-28T22:55:45.704Z,73.73
2022-07-28T22:58:12.508Z,73.49
2022-07-28T23:00:39.185Z,73.29
2022-07-28T23:03:05.909Z,74.25
2022-07-28T23:05:33.770Z,73.43
2022-07-28T23:08:00.398Z,72.95
2022-07-28T23:10:27.113Z,73.30
2022-07-28T23:12:57.217Z,73.73
2022-07-28T23:15:40.966Z,73.51
2022-07-28T23:18:11.862Z,73.91
2022-07-28T23:20:39.397Z,75.43
2022-07-28T23:23:06.276Z,75.22
2022-07-28T23:25:33.602Z,75.14
2022-07-28T23:28:00.601Z,76.00
2022-07-28T23:30:27.244Z,75.96
2022-07-28T23:32:54.642Z,78.16
2022-07-28T23:35:21.370Z,76.94
2022-07-28T23:37:48.147Z,75.51
2022-07-28T23:40:14.917Z,76.42
2022-07-28T23:42:41.573Z,75.67
2022-07-28T23:45:09.137Z,74.95
2022-07-28T23:47:35.838Z,73.87
2022-07-28T23:50:03.973Z,74.17
2022-07-28T23:52:30.660Z,75.04
2022-07-28T23:54:57.261Z,76.22
2022-07-28T23:57:23.902Z,76.90
2022-07-28T23:59:50.782Z,77.18
